createdAt,value
2019-01-25T00:01:13.293Z,39.57
2019-01-25T00:03:43.181Z,40.33
2019-01-25T00:06:13.431Z,40.80
2019-01-25T00:08:42.720Z,38.20
2019-01-25T00:11:12.269Z,39.30
2019-01-25T00:13:41.671Z,39.23
2019-01-25T00:16:10.935Z,39.30
2019-01-25T00:18:40.228Z,37.93
2019-01-25T00:21:09.522Z,40.60
2019-01-25T00:23:38.814Z,39.00
2019-01-25T00:26:08.279Z,39.70
2019-01-25T00:28:37.572Z,39.97
2019-01-25T00:31:06.936Z,39.97
2019-01-25T00:33:36.548Z,37.73
2019-01-25T00:36:06.107Z,38.27
2019-01-25T00:38:35.683Z,39.23
2019-01-25T00:41:05.198Z,39.60
2019-01-25T00:43:34.562Z,43.57
2019-01-25T00:46:04.441Z,39.30
2019-01-25T00:48:34.154Z,41.37
2019-01-25T00:51:03.878Z,38.33
2019-01-25T00:53:33.416Z,38.30
2019-01-25T00:56:02.699Z,39.20
2019-01-25T00:58:31.979Z,39.60
2019-01-25T01:01:01.336Z,37.83
2019-01-25T01:03:31.093Z,37.67
2019-01-25T01:06:00.534Z,40.50
2019-01-25T01:08:29.817Z,38.87
2019-01-25T01:10:59.119Z,39.27
2019-01-25T01:13:28.505Z,41.90
2019-01-25T01:15:57.842Z,41.33
2019-01-25T01:18:27.583Z,41.67
2019-01-25T01:20:56.961Z,41.97
2019-01-25T01:23:26.793Z,40.27
2019-01-25T01:25:56.172Z,40.43
2019-01-25T01:28:25.541Z,40.77
2019-01-25T01:30:54.879Z,41.70
2019-01-25T01:33:24.154Z,42.17
2019-01-25T01:35:53.453Z,41.10
2019-01-25T01:38:41.794Z,38.90
2019-01-25T01:41:11.084Z,40.67
2019-01-25T01:43:40.781Z,38.67
2019-01-25T01:46:10.127Z,39.90
2019-01-25T01:48:39.771Z,40.30
2019-01-25T01:51:09.148Z,40.27
2019-01-25T01:53:38.425Z,41.27
2019-01-25T01:56:07.731Z,40.03
2019-01-25T01:58:40.660Z,40.43
2019-01-25T02:01:10.387Z,38.63
2019-01-25T02:03:39.654Z,41.40
2019-01-25T02:06:09.217Z,40.00
2019-01-25T02:08:38.487Z,41.40
2019-01-25T02:11:08.091Z,42.80
2019-01-25T02:13:37.683Z,39.80
2019-01-25T02:16:06.954Z,41.47
2019-01-25T02:18:36.242Z,40.27
2019-01-25T02:21:07.726Z,41.67
2019-01-25T02:23:37.011Z,40.63
2019-01-25T02:26:06.271Z,41.70
2019-01-25T02:28:35.643Z,41.90
2019-01-25T02:31:05.249Z,40.77
2019-01-25T02:33:34.541Z,40.30
2019-01-25T02:36:03.805Z,39.30
2019-01-25T02:38:33.237Z,40.63
2019-01-25T02:41:02.505Z,41.50
2019-01-25T02:43:33.796Z,42.27
2019-01-25T02:46:03.070Z,41.37
2019-01-25T02:48:32.712Z,40.00
2019-01-25T02:51:02.000Z,40.43
2019-01-25T02:53:31.621Z,40.60
2019-01-25T02:56:00.922Z,41.93
2019-01-25T02:58:30.283Z,38.57
2019-01-25T03:00:59.547Z,40.93
2019-01-25T03:03:28.874Z,41.00
2019-01-25T03:05:58.162Z,40.03
2019-01-25T03:08:27.460Z,39.60
2019-01-25T03:10:56.730Z,39.40
2019-01-25T03:13:26.043Z,39.80
2019-01-25T03:15:55.327Z,42.00
2019-01-25T03:18:24.612Z,41.30
2019-01-25T03:20:54.239Z,41.27
2019-01-25T03:23:23.508Z,42.47
2019-01-25T03:25:52.818Z,39.67
2019-01-25T03:28:22.092Z,39.40
2019-01-25T03:30:51.369Z,40.07
2019-01-25T03:33:21.012Z,40.57
2019-01-25T03:35:50.676Z,39.00
2019-01-25T03:38:20.263Z,42.40
2019-01-25T03:40:54.915Z,38.57
2019-01-25T03:43:20.555Z,42.20
2019-01-25T03:45:50.103Z,41.77
2019-01-25T03:48:19.386Z,44.20
2019-01-25T03:50:49.500Z,41.60
2019-01-25T03:53:18.804Z,41.37
2019-01-25T03:55:48.111Z,40.43
2019-01-25T03:58:17.391Z,40.67
2019-01-25T04:00:46.647Z,42.43
2019-01-25T04:03:15.938Z,41.87
2019-01-25T04:05:45.237Z,41.40
2019-01-25T04:08:14.499Z,43.40
2019-01-25T04:10:43.779Z,43.27
2019-01-25T04:13:13.044Z,42.23
2019-01-25T04:15:42.533Z,42.47
2019-01-25T04:18:11.815Z,41.27
2019-01-25T04:20:41.400Z,40.63
2019-01-25T04:23:10.668Z,44.00
2019-01-25T04:25:39.965Z,43.60
2019-01-25T04:28:09.487Z,41.90
2019-01-25T04:30:38.806Z,43.67
2019-01-25T04:33:08.130Z,42.17
2019-01-25T04:35:37.738Z,44.30
2019-01-25T04:38:07.007Z,44.87
2019-01-25T04:40:36.604Z,42.03
2019-01-25T04:43:05.918Z,45.00
2019-01-25T04:45:35.207Z,42.13
2019-01-25T04:48:04.884Z,40.43
2019-01-25T04:50:34.160Z,40.40
2019-01-25T04:53:03.485Z,43.10
2019-01-25T04:55:33.848Z,41.73
2019-01-25T04:58:11.833Z,42.97
2019-01-25T05:00:41.187Z,43.27
2019-01-25T05:03:10.833Z,41.43
2019-01-25T05:05:40.091Z,44.50
2019-01-25T05:08:20.179Z,43.10
2019-01-25T05:10:49.755Z,41.43
2019-01-25T05:13:19.190Z,41.77
2019-01-25T05:15:48.585Z,42.00
2019-01-25T05:18:17.857Z,42.20
2019-01-25T05:20:48.469Z,42.50
2019-01-25T05:23:17.820Z,44.57
2019-01-25T05:25:47.102Z,45.47
2019-01-25T05:28:18.516Z,45.20
2019-01-25T05:30:56.204Z,43.73
2019-01-25T05:33:25.580Z,44.90
2019-01-25T05:35:54.883Z,45.93
2019-01-25T05:38:24.233Z,44.67
2019-01-25T05:40:53.515Z,45.23
2019-01-25T05:43:22.793Z,45.93
2019-01-25T05:45:52.073Z,41.77
2019-01-25T05:48:29.097Z,43.10
2019-01-25T05:51:01.812Z,42.43
2019-01-25T05:53:31.127Z,45.43
2019-01-25T05:56:00.391Z,44.50
2019-01-25T05:58:29.927Z,45.20
2019-01-25T06:00:59.212Z,45.40
2019-01-25T06:03:28.520Z,45.13
2019-01-25T06:06:06.388Z,45.70
2019-01-25T06:08:43.641Z,44.83
2019-01-25T06:11:09.110Z,44.67
2019-01-25T06:13:39.427Z,43.53
2019-01-25T06:16:09.111Z,47.23
2019-01-25T06:18:38.404Z,44.20
2019-01-25T06:21:07.971Z,43.87
2019-01-25T06:23:37.319Z,44.87
2019-01-25T06:26:07.958Z,44.43
2019-01-25T06:28:37.310Z,45.10
2019-01-25T06:31:06.806Z,42.63
2019-01-25T06:33:36.270Z,43.03
2019-01-25T06:36:07.099Z,46.27
2019-01-25T06:38:36.662Z,45.70
2019-01-25T06:41:06.952Z,44.13
2019-01-25T06:43:36.340Z,45.13
2019-01-25T06:46:05.915Z,45.17
2019-01-25T06:48:35.220Z,47.50
2019-01-25T06:51:04.875Z,44.67
2019-01-25T06:53:34.473Z,45.47
2019-01-25T06:56:03.755Z,43.10
2019-01-25T06:58:52.313Z,45.63
2019-01-25T07:01:55.953Z,44.97
2019-01-25T07:04:25.608Z,47.07
2019-01-25T07:06:55.065Z,46.07
2019-01-25T07:09:24.633Z,46.87
2019-01-25T07:11:53.922Z,46.83
2019-01-25T07:14:23.182Z,47.63
2019-01-25T07:16:52.825Z,45.37
2019-01-25T07:19:22.348Z,46.60
2019-01-25T07:21:51.639Z,46.93
2019-01-25T07:24:21.236Z,44.80
2019-01-25T07:26:50.511Z,46.93
2019-01-25T07:29:19.796Z,48.33
2019-01-25T07:31:49.076Z,48.53
2019-01-25T07:34:18.430Z,46.37
2019-01-25T07:36:47.699Z,47.33
2019-01-25T07:39:35.424Z,44.17
2019-01-25T07:42:04.712Z,44.77
2019-01-25T07:44:34.287Z,45.00
2019-01-25T07:47:04.288Z,47.07
2019-01-25T07:49:34.011Z,44.70
2019-01-25T07:52:03.371Z,46.17
2019-01-25T07:54:32.741Z,45.20
2019-01-25T07:57:02.094Z,46.43
2019-01-25T07:59:31.449Z,48.63
2019-01-25T08:02:00.737Z,45.37
2019-01-25T08:04:30.163Z,46.60
2019-01-25T08:06:59.516Z,49.07
2019-01-25T08:09:28.892Z,49.10
2019-01-25T08:11:58.540Z,49.17
2019-01-25T08:14:28.186Z,48.87
2019-01-25T08:16:57.520Z,47.10
2019-01-25T08:19:26.839Z,48.03
2019-01-25T08:21:56.345Z,47.37
2019-01-25T08:24:25.744Z,47.30
2019-01-25T08:26:55.401Z,46.87
2019-01-25T08:29:28.098Z,49.40
2019-01-25T08:31:55.832Z,47.90
2019-01-25T08:34:25.469Z,46.63
2019-01-25T08:36:54.944Z,47.53
2019-01-25T08:39:24.645Z,47.57
2019-01-25T08:41:54.239Z,45.53
2019-01-25T08:44:26.325Z,46.30
2019-01-25T08:46:55.892Z,49.77
2019-01-25T08:49:25.210Z,49.13
2019-01-25T08:51:54.929Z,48.27
2019-01-25T08:54:24.284Z,51.70
2019-01-25T08:56:53.640Z,53.27
2019-01-25T08:59:23.020Z,48.97
2019-01-25T09:01:52.636Z,47.40
2019-01-25T09:04:22.061Z,47.30
2019-01-25T09:06:51.337Z,47.90
2019-01-25T09:09:20.619Z,47.13
2019-01-25T09:11:49.917Z,44.00
2019-01-25T09:14:19.627Z,49.40
2019-01-25T09:16:48.984Z,49.17
2019-01-25T09:19:18.246Z,46.87
2019-01-25T09:21:47.543Z,49.70
2019-01-25T09:24:16.808Z,49.90
2019-01-25T09:26:46.167Z,48.13
2019-01-25T09:29:15.495Z,47.17
2019-01-25T09:31:44.868Z,48.17
2019-01-25T09:34:14.162Z,49.13
2019-01-25T09:36:43.607Z,49.17
2019-01-25T09:39:12.875Z,49.20
2019-01-25T09:41:42.183Z,50.03
2019-01-25T09:44:11.469Z,48.57
2019-01-25T09:46:40.783Z,50.10
2019-01-25T09:49:10.333Z,48.33
2019-01-25T09:51:39.601Z,48.00
2019-01-25T09:54:09.241Z,45.57
2019-01-25T09:56:38.847Z,47.27
2019-01-25T09:59:08.220Z,48.17
2019-01-25T10:01:37.516Z,46.30
2019-01-25T10:04:06.823Z,48.33
2019-01-25T10:06:36.097Z,48.87
2019-01-25T10:09:08.722Z,50.47
2019-01-25T10:11:38.362Z,50.30
2019-01-25T10:14:08.950Z,47.63
2019-01-25T10:16:38.239Z,45.33
2019-01-25T10:19:07.530Z,47.83
2019-01-25T10:21:36.790Z,46.30
2019-01-25T10:24:06.113Z,48.03
2019-01-25T10:26:35.424Z,47.73
2019-01-25T10:29:04.812Z,48.20
2019-01-25T10:31:35.397Z,49.33
2019-01-25T10:34:05.139Z,48.93
2019-01-25T10:36:34.735Z,49.13
2019-01-25T10:39:05.667Z,48.27
2019-01-25T10:41:34.939Z,49.50
2019-01-25T10:44:04.998Z,48.20
2019-01-25T10:46:34.323Z,46.77
2019-01-25T10:49:03.899Z,46.70
2019-01-25T10:51:33.159Z,49.10
2019-01-25T10:54:02.434Z,49.10
2019-01-25T10:56:31.763Z,48.37
2019-01-25T10:59:01.131Z,47.90
2019-01-25T11:01:30.398Z,48.67
2019-01-25T11:03:59.695Z,49.13
2019-01-25T11:06:28.955Z,47.90
2019-01-25T11:08:58.599Z,49.63
2019-01-25T11:11:28.131Z,48.70
2019-01-25T11:13:57.415Z,49.70
2019-01-25T11:16:26.790Z,47.87
2019-01-25T11:18:56.114Z,50.57
2019-01-25T11:21:25.375Z,50.20
2019-01-25T11:23:54.764Z,49.27
2019-01-25T11:26:24.031Z,46.10
2019-01-25T11:28:53.638Z,47.23
2019-01-25T11:31:22.929Z,47.67
2019-01-25T11:33:52.508Z,50.27
2019-01-25T11:36:21.846Z,49.10
2019-01-25T11:38:51.125Z,48.47
2019-01-25T11:41:20.675Z,48.47
2019-01-25T11:43:49.972Z,47.77
2019-01-25T11:46:19.235Z,45.67
2019-01-25T11:48:48.530Z,48.03
2019-01-25T11:51:17.854Z,46.03
2019-01-25T11:53:47.154Z,46.23
2019-01-25T11:56:16.496Z,43.83
2019-01-25T11:58:46.134Z,46.40
2019-01-25T12:01:15.647Z,44.50
2019-01-25T12:03:44.963Z,43.73
2019-01-25T12:06:14.524Z,44.27
2019-01-25T12:08:43.807Z,41.47
2019-01-25T12:11:13.224Z,41.67
2019-01-25T12:13:42.471Z,40.57
2019-01-25T12:16:11.833Z,40.33
2019-01-25T12:18:41.097Z,37.47
2019-01-25T12:21:10.387Z,41.53
2019-01-25T12:23:39.721Z,38.63
2019-01-25T12:26:09.004Z,35.53
2019-01-25T12:28:38.656Z,35.40
2019-01-25T12:31:07.944Z,34.80
2019-01-25T12:33:37.212Z,35.30
2019-01-25T12:36:06.511Z,32.07
2019-01-25T12:38:35.820Z,33.30
2019-01-25T12:41:05.275Z,32.63
2019-01-25T12:43:34.578Z,33.93
2019-01-25T12:46:04.133Z,34.90
2019-01-25T12:48:33.410Z,35.10
2019-01-25T12:51:30.254Z,32.10
2019-01-25T12:53:59.603Z,32.00
2019-01-25T12:56:29.182Z,31.37
2019-01-25T12:58:58.458Z,31.83
2019-01-25T13:01:29.396Z,31.13
2019-01-25T13:03:58.671Z,30.17
2019-01-25T13:06:27.998Z,32.30
2019-01-25T13:08:57.271Z,33.17
2019-01-25T13:11:26.641Z,30.93
2019-01-25T13:13:56.013Z,31.23
2019-01-25T13:16:25.407Z,31.53
2019-01-25T13:18:54.736Z,30.20
2019-01-25T13:21:24.059Z,29.93
2019-01-25T13:23:53.344Z,31.37
2019-01-25T13:26:22.711Z,30.97
2019-01-25T13:28:52.352Z,33.53
2019-01-25T13:31:22.112Z,33.90
2019-01-25T13:33:51.507Z,34.57
2019-01-25T13:36:21.306Z,31.23
2019-01-25T13:38:51.009Z,32.20
2019-01-25T13:41:20.360Z,31.43
2019-01-25T13:43:49.807Z,31.90
2019-01-25T13:46:19.062Z,30.30
2019-01-25T13:48:48.337Z,30.57
2019-01-25T13:51:17.899Z,31.90
2019-01-25T13:53:47.186Z,34.70
2019-01-25T13:56:16.443Z,31.73
2019-01-25T13:58:45.710Z,30.73
2019-01-25T14:01:15.227Z,31.87
2019-01-25T14:03:44.519Z,31.03
2019-01-25T14:06:13.767Z,30.80
2019-01-25T14:08:43.031Z,33.53
2019-01-25T14:11:12.326Z,30.17
2019-01-25T14:13:46.666Z,36.43
2019-01-25T14:16:12.614Z,29.03
2019-01-25T14:18:44.877Z,29.87
2019-01-25T14:21:12.983Z,29.07
2019-01-25T14:23:42.778Z,28.37
2019-01-25T14:26:12.491Z,29.03
2019-01-25T14:28:41.837Z,31.03
2019-01-25T14:31:11.204Z,34.67
2019-01-25T14:33:40.807Z,32.00
2019-01-25T14:36:10.448Z,31.00
2019-01-25T14:38:39.812Z,29.93
2019-01-25T14:41:09.103Z,32.30
2019-01-25T14:43:38.645Z,33.90
2019-01-25T14:46:08.232Z,29.90
2019-01-25T14:48:38.273Z,31.13
2019-01-25T14:51:08.058Z,28.80
2019-01-25T14:53:37.883Z,28.57
2019-01-25T14:56:07.549Z,28.47
2019-01-25T14:58:36.815Z,30.03
2019-01-25T15:01:06.405Z,29.07
2019-01-25T15:03:35.964Z,28.93
2019-01-25T15:06:05.361Z,29.07
2019-01-25T15:08:34.610Z,27.83
2019-01-25T15:11:04.208Z,25.57
2019-01-25T15:13:33.794Z,24.60
2019-01-25T15:16:03.158Z,25.50
2019-01-25T15:18:32.433Z,23.20
2019-01-25T15:21:01.728Z,22.00
2019-01-25T15:23:31.042Z,21.90
2019-01-25T15:26:00.359Z,14.37
2019-01-25T15:28:29.652Z,11.97
2019-01-25T15:30:58.943Z,11.20
2019-01-25T15:33:28.456Z,10.60
2019-01-25T15:35:57.839Z,9.53
2019-01-25T15:38:27.099Z,9.13
2019-01-25T15:40:56.429Z,9.53
2019-01-25T15:43:25.747Z,9.03
2019-01-25T15:45:55.003Z,9.47
2019-01-25T15:48:24.312Z,8.33
2019-01-25T15:50:53.567Z,8.73
2019-01-25T15:53:22.960Z,8.97
2019-01-25T15:55:52.224Z,8.70
2019-01-25T15:58:21.555Z,9.93
2019-01-25T16:00:50.857Z,9.93
2019-01-25T16:03:20.410Z,9.30
2019-01-25T16:05:49.862Z,8.87
2019-01-25T16:08:19.355Z,8.67
2019-01-25T16:10:48.816Z,11.12
2019-01-25T16:13:18.101Z,9.73
2019-01-25T16:15:47.663Z,11.73
2019-01-25T16:18:17.012Z,9.37
2019-01-25T16:20:47.015Z,9.30
2019-01-25T16:23:16.302Z,9.33
2019-01-25T16:25:45.577Z,10.20
2019-01-25T16:28:14.910Z,9.30
2019-01-25T16:30:44.285Z,8.60
2019-01-25T16:33:13.575Z,9.17
2019-01-25T16:35:42.988Z,8.73
2019-01-25T16:38:12.574Z,9.23
2019-01-25T16:40:41.869Z,9.43
2019-01-25T16:43:12.222Z,9.07
2019-01-25T16:45:43.572Z,8.90
2019-01-25T16:48:13.075Z,10.10
2019-01-25T16:50:42.635Z,10.13
2019-01-25T16:53:13.534Z,9.97
2019-01-25T16:55:42.823Z,10.43
2019-01-25T16:58:12.668Z,9.87
2019-01-25T17:00:44.293Z,9.97
2019-01-25T17:03:13.563Z,10.53
2019-01-25T17:05:43.136Z,10.73
2019-01-25T17:08:12.392Z,12.57
2019-01-25T17:10:41.671Z,12.33
2019-01-25T17:13:10.942Z,11.83
2019-01-25T17:15:40.257Z,10.63
2019-01-25T17:18:09.816Z,11.47
2019-01-25T17:20:39.468Z,11.23
2019-01-25T17:23:08.993Z,11.70
2019-01-25T17:25:38.699Z,11.80
2019-01-25T17:28:09.463Z,13.37
2019-01-25T17:30:40.086Z,13.03
2019-01-25T17:33:09.518Z,13.60
2019-01-25T17:35:38.882Z,13.80
2019-01-25T17:38:09.102Z,14.87
2019-01-25T17:40:46.806Z,14.53
2019-01-25T17:43:16.399Z,14.60
2019-01-25T17:45:45.694Z,13.97
2019-01-25T17:48:14.982Z,15.83
2019-01-25T17:50:44.270Z,15.50
2019-01-25T17:53:14.207Z,18.70
2019-01-25T17:55:43.488Z,20.20
2019-01-25T17:58:12.888Z,18.90
2019-01-25T18:00:56.307Z,17.27
2019-01-25T18:03:25.592Z,19.00
2019-01-25T18:05:54.871Z,19.63
2019-01-25T18:08:24.159Z,19.83
2019-01-25T18:10:53.538Z,17.83
2019-01-25T18:13:22.799Z,19.83
2019-01-25T18:15:52.074Z,19.97
2019-01-25T18:18:21.364Z,19.03
2019-01-25T18:20:50.730Z,19.80
2019-01-25T18:23:20.000Z,18.90
2019-01-25T18:26:02.402Z,18.93
2019-01-25T18:28:38.209Z,18.13
2019-01-25T18:31:14.600Z,17.80
2019-01-25T18:33:43.950Z,19.10
2019-01-25T18:36:13.568Z,18.33
2019-01-25T18:38:42.911Z,18.57
2019-01-25T18:41:12.206Z,20.03
2019-01-25T18:43:41.483Z,18.07
2019-01-25T18:46:10.802Z,19.13
2019-01-25T18:48:40.090Z,19.30
2019-01-25T18:51:09.364Z,19.60
2019-01-25T18:53:39.182Z,20.47
2019-01-25T18:56:11.269Z,22.07
2019-01-25T18:58:40.558Z,20.60
2019-01-25T19:01:09.857Z,19.73
2019-01-25T19:03:39.435Z,19.17
2019-01-25T19:06:08.698Z,19.30
2019-01-25T19:08:38.350Z,20.87
2019-01-25T19:11:07.982Z,19.87
2019-01-25T19:13:37.313Z,20.30
2019-01-25T19:16:06.639Z,20.27
2019-01-25T19:18:36.032Z,22.67
2019-01-25T19:21:05.398Z,19.43
2019-01-25T19:23:35.371Z,21.17
2019-01-25T19:26:04.849Z,20.50
2019-01-25T19:28:34.504Z,18.77
2019-01-25T19:31:03.783Z,18.93
2019-01-25T19:33:33.177Z,19.07
2019-01-25T19:36:02.440Z,19.03
2019-01-25T19:38:31.981Z,19.93
2019-01-25T19:41:01.599Z,21.30
2019-01-25T19:43:30.893Z,19.17
2019-01-25T19:46:00.488Z,19.23
2019-01-25T19:48:30.115Z,18.07
2019-01-25T19:50:59.445Z,19.87
2019-01-25T19:53:28.781Z,19.83
2019-01-25T19:55:58.054Z,19.03
2019-01-25T19:58:27.340Z,20.23
2019-01-25T20:00:56.695Z,18.17
2019-01-25T20:03:25.972Z,20.43
2019-01-25T20:05:55.304Z,28.53
2019-01-25T20:08:24.860Z,28.43
2019-01-25T20:10:54.179Z,23.60
2019-01-25T20:13:23.505Z,20.70
2019-01-25T20:15:52.846Z,21.70
2019-01-25T20:18:22.550Z,21.63
2019-01-25T20:20:51.848Z,19.67
2019-01-25T20:23:21.290Z,20.37
2019-01-25T20:25:50.574Z,21.93
2019-01-25T20:28:20.140Z,19.97
2019-01-25T20:30:49.987Z,18.57
2019-01-25T20:33:19.431Z,26.60
2019-01-25T20:35:49.095Z,20.93
2019-01-25T20:38:18.362Z,24.67
2019-01-25T20:40:47.991Z,19.93
2019-01-25T20:43:17.524Z,19.00
2019-01-25T20:45:46.870Z,19.43
2019-01-25T20:48:16.342Z,18.00
2019-01-25T20:50:46.016Z,19.17
2019-01-25T20:53:15.745Z,18.73
2019-01-25T20:55:45.312Z,20.47
2019-01-25T20:58:14.708Z,18.33
2019-01-25T21:00:44.051Z,17.87
2019-01-25T21:03:15.534Z,19.53
2019-01-25T21:05:45.195Z,23.27
2019-01-25T21:08:14.480Z,20.30
2019-01-25T21:10:44.628Z,18.10
2019-01-25T21:13:13.907Z,18.47
2019-01-25T21:15:43.491Z,18.57
2019-01-25T21:18:13.049Z,17.10
2019-01-25T21:20:44.713Z,15.43
2019-01-25T21:23:14.388Z,16.40
2019-01-25T21:25:43.827Z,15.17
2019-01-25T21:28:13.375Z,16.67
2019-01-25T21:30:43.094Z,18.60
2019-01-25T21:33:12.462Z,15.40
2019-01-25T21:35:41.967Z,16.27
2019-01-25T21:38:11.362Z,14.77
2019-01-25T21:40:40.780Z,15.43
2019-01-25T21:43:10.827Z,17.33
2019-01-25T21:45:43.227Z,15.80
2019-01-25T21:48:16.833Z,15.97
2019-01-25T21:50:47.045Z,15.50
2019-01-25T21:53:16.644Z,14.67
2019-01-25T21:55:46.241Z,14.50
2019-01-25T21:58:15.555Z,15.07
2019-01-25T22:00:44.862Z,15.37
2019-01-25T22:03:14.158Z,16.50
2019-01-25T22:05:43.756Z,15.00
2019-01-25T22:08:13.339Z,15.33
2019-01-25T22:10:45.546Z,15.20
2019-01-25T22:13:14.835Z,17.95
2019-01-25T22:15:50.694Z,15.47
2019-01-25T22:18:15.098Z,15.20
2019-01-25T22:20:44.671Z,15.30
2019-01-25T22:23:13.959Z,15.70
2019-01-25T22:25:43.242Z,14.67
2019-01-25T22:28:12.531Z,13.90
2019-01-25T22:30:42.168Z,13.80
2019-01-25T22:33:11.446Z,13.73
2019-01-25T22:35:41.071Z,12.70
2019-01-25T22:38:10.433Z,12.37
2019-01-25T22:40:39.970Z,12.30
2019-01-25T22:43:09.359Z,12.13
2019-01-25T22:45:38.631Z,12.17
2019-01-25T22:48:07.957Z,12.87
2019-01-25T22:50:38.229Z,12.87
2019-01-25T22:53:07.903Z,12.70
2019-01-25T22:55:37.528Z,11.97
2019-01-25T22:58:07.096Z,12.47
2019-01-25T23:00:54.543Z,12.47
2019-01-25T23:03:34.041Z,11.17
2019-01-25T23:06:35.787Z,12.37
2019-01-25T23:09:18.302Z,12.13
2019-01-25T23:11:47.659Z,11.97
2019-01-25T23:14:16.932Z,12.93
2019-01-25T23:16:46.203Z,12.67
2019-01-25T23:19:15.807Z,11.93
2019-01-25T23:21:45.057Z,12.37
2019-01-25T23:24:14.658Z,12.37
2019-01-25T23:26:43.939Z,12.50
2019-01-25T23:29:14.135Z,11.60
2019-01-25T23:31:43.692Z,11.60
2019-01-25T23:34:13.055Z,12.33
2019-01-25T23:36:42.363Z,13.23
2019-01-25T23:39:12.972Z,13.33
2019-01-25T23:41:42.297Z,12.83
2019-01-25T23:44:11.994Z,12.67
2019-01-25T23:46:41.377Z,11.87
2019-01-25T23:49:10.825Z,12.23
2019-01-25T23:51:40.232Z,10.83
2019-01-25T23:54:09.506Z,11.80
2019-01-25T23:56:38.814Z,11.37
2019-01-25T23:59:08.180Z,11.60
